createdAt,value
2018-11-02T00:00:15.249Z,94.00
2018-11-02T00:02:43.416Z,93.90
2018-11-02T00:05:11.703Z,94.20
2018-11-02T00:07:39.935Z,94.30
2018-11-02T00:10:08.119Z,94.40
2018-11-02T00:12:36.389Z,94.20
2018-11-02T00:15:05.356Z,94.20
2018-11-02T00:17:34.515Z,94.20
2018-11-02T00:20:02.750Z,94.20
2018-11-02T00:22:30.981Z,94.20
2018-11-02T00:24:59.107Z,94.30
2018-11-02T00:27:27.256Z,94.30
2018-11-02T00:29:55.449Z,94.30
2018-11-02T00:32:23.632Z,94.30
2018-11-02T00:34:51.784Z,94.20
2018-11-02T00:37:19.942Z,94.10
2018-11-02T00:39:48.096Z,94.00
2018-11-02T00:42:16.300Z,93.80
2018-11-02T00:44:44.531Z,93.90
2018-11-02T00:47:12.712Z,93.90
2018-11-02T00:49:40.860Z,94.30
2018-11-02T00:52:09.020Z,94.50
2018-11-02T00:54:37.198Z,94.70
2018-11-02T00:57:05.720Z,94.80
2018-11-02T00:59:33.938Z,95.10
2018-11-02T01:02:02.155Z,95.40
2018-11-02T01:04:30.324Z,95.70
2018-11-02T01:06:58.542Z,95.80
2018-11-02T01:09:26.710Z,95.90
2018-11-02T01:11:54.862Z,96.00
2018-11-02T01:14:23.018Z,95.90
2018-11-02T01:16:51.213Z,95.70
2018-11-02T01:19:21.587Z,95.70
2018-11-02T01:21:49.826Z,95.40
2018-11-02T01:24:17.996Z,95.30
2018-11-02T01:26:46.204Z,95.30
2018-11-02T01:29:14.392Z,95.40
2018-11-02T01:31:42.597Z,95.30
2018-11-02T01:34:10.739Z,94.90
2018-11-02T01:36:38.975Z,94.90
2018-11-02T01:39:08.544Z,95.00
2018-11-02T01:41:37.956Z,94.70
2018-11-02T01:44:06.164Z,94.70
2018-11-02T01:46:34.394Z,94.60
2018-11-02T01:49:02.573Z,94.40
2018-11-02T01:51:30.728Z,94.60
2018-11-02T01:53:58.917Z,94.60
2018-11-02T01:56:27.060Z,95.00
2018-11-02T01:58:55.263Z,94.90
2018-11-02T02:01:23.414Z,94.70
2018-11-02T02:03:51.550Z,94.70
2018-11-02T02:06:19.719Z,94.60
2018-11-02T02:08:47.897Z,94.70
2018-11-02T02:11:16.094Z,94.60
2018-11-02T02:13:44.227Z,94.60
2018-11-02T02:16:12.388Z,94.60
2018-11-02T02:18:41.071Z,94.60
2018-11-02T02:21:09.208Z,94.60
2018-11-02T02:23:37.421Z,94.50
2018-11-02T02:26:05.979Z,94.60
2018-11-02T02:28:34.129Z,94.70
2018-11-02T02:31:02.255Z,94.70
2018-11-02T02:33:30.406Z,94.60
2018-11-02T02:35:58.561Z,94.60
2018-11-02T02:38:26.795Z,94.70
2018-11-02T02:40:54.951Z,94.70
2018-11-02T02:43:23.116Z,94.60
2018-11-02T02:45:51.280Z,94.60
2018-11-02T02:48:19.545Z,94.50
2018-11-02T02:50:47.753Z,94.50
2018-11-02T02:53:15.893Z,94.40
2018-11-02T02:55:44.068Z,94.30
2018-11-02T02:58:12.224Z,94.10
2018-11-02T03:00:40.377Z,94.20
2018-11-02T03:03:08.519Z,94.10
2018-11-02T03:05:36.689Z,94.20
2018-11-02T03:08:04.967Z,94.20
2018-11-02T03:10:33.190Z,94.30
2018-11-02T03:13:01.322Z,94.20
2018-11-02T03:15:29.487Z,94.30
2018-11-02T03:17:57.616Z,94.20
2018-11-02T03:20:25.828Z,94.20
2018-11-02T03:22:54.049Z,94.60
2018-11-02T03:25:22.251Z,94.50
2018-11-02T03:27:50.439Z,94.50
2018-11-02T03:30:18.584Z,94.40
2018-11-02T03:32:46.784Z,94.50
2018-11-02T03:35:14.945Z,94.70
2018-11-02T03:37:43.129Z,94.70
2018-11-02T03:40:11.919Z,95.00
2018-11-02T03:42:40.307Z,94.90
2018-11-02T03:45:08.493Z,94.80
2018-11-02T03:47:36.639Z,94.80
2018-11-02T03:50:05.623Z,94.70
2018-11-02T03:52:33.759Z,94.80
2018-11-02T03:55:01.911Z,94.70
2018-11-02T03:57:30.075Z,94.80
2018-11-02T03:59:58.827Z,94.90
2018-11-02T04:02:26.985Z,95.00
2018-11-02T04:04:55.147Z,95.10
2018-11-02T04:07:23.313Z,95.00
2018-11-02T04:09:51.494Z,94.90
2018-11-02T04:12:19.687Z,95.00
2018-11-02T04:14:47.931Z,95.00
2018-11-02T04:17:16.314Z,95.00
2018-11-02T04:19:44.523Z,95.00
2018-11-02T04:22:12.735Z,95.00
2018-11-02T04:24:40.879Z,95.10
2018-11-02T04:27:09.046Z,95.20
2018-11-02T04:29:37.263Z,95.30
2018-11-02T04:32:05.687Z,95.10
2018-11-02T04:34:33.809Z,95.00
2018-11-02T04:37:01.964Z,94.90
2018-11-02T04:39:30.144Z,94.60
2018-11-02T04:41:58.325Z,94.50
2018-11-02T04:44:26.484Z,94.50
2018-11-02T04:46:54.651Z,94.50
2018-11-02T04:49:22.846Z,94.60
2018-11-02T04:51:51.016Z,94.60
2018-11-02T04:54:19.194Z,94.70
2018-11-02T04:56:47.446Z,94.70
2018-11-02T04:59:15.618Z,94.60
2018-11-02T05:01:43.778Z,94.60
2018-11-02T05:04:11.928Z,94.70
2018-11-02T05:06:40.106Z,94.70
2018-11-02T05:09:08.906Z,94.70
2018-11-02T05:11:37.231Z,94.60
2018-11-02T05:14:05.886Z,94.60
2018-11-02T05:16:34.004Z,94.60
2018-11-02T05:19:02.263Z,94.60
2018-11-02T05:21:30.553Z,94.60
2018-11-02T05:23:58.597Z,94.60
2018-11-02T05:26:29.578Z,94.60
2018-11-02T05:28:58.476Z,94.80
2018-11-02T05:31:27.555Z,94.90
2018-11-02T05:33:56.375Z,95.10
2018-11-02T05:36:27.147Z,94.70
2018-11-02T05:38:55.308Z,94.90
2018-11-02T05:41:23.794Z,94.70
2018-11-02T05:43:52.078Z,94.60
2018-11-02T05:46:20.243Z,94.60
2018-11-02T05:48:48.401Z,94.70
2018-11-02T05:51:16.590Z,94.60
2018-11-02T05:53:44.724Z,94.70
2018-11-02T05:56:12.843Z,94.70
2018-11-02T05:58:41.025Z,94.80
2018-11-02T06:01:09.197Z,94.60
2018-11-02T06:03:37.326Z,94.50
2018-11-02T06:06:05.642Z,94.60
2018-11-02T06:08:33.813Z,94.60
2018-11-02T06:11:01.990Z,94.60
2018-11-02T06:13:30.152Z,94.70
2018-11-02T06:16:05.396Z,94.60
2018-11-02T06:18:33.542Z,94.80
2018-11-02T06:21:01.816Z,94.90
2018-11-02T06:23:30.041Z,94.80
2018-11-02T06:25:58.282Z,94.80
2018-11-02T06:28:26.546Z,94.70
2018-11-02T06:30:54.760Z,94.60
2018-11-02T06:33:23.159Z,94.30
2018-11-02T06:35:51.406Z,94.30
2018-11-02T06:38:19.630Z,94.10
2018-11-02T06:40:47.806Z,94.10
2018-11-02T06:43:16.006Z,94.00
2018-11-02T06:45:44.242Z,93.90
2018-11-02T06:48:12.431Z,94.00
2018-11-02T06:50:40.740Z,94.10
2018-11-02T06:53:08.989Z,94.10
2018-11-02T06:55:37.188Z,94.10
2018-11-02T06:58:05.752Z,94.00
2018-11-02T07:00:34.252Z,93.80
2018-11-02T07:03:02.264Z,93.70
2018-11-02T07:05:30.467Z,93.60
2018-11-02T07:07:58.804Z,93.60
2018-11-02T07:10:26.913Z,93.60
2018-11-02T07:12:55.122Z,93.60
2018-11-02T07:15:23.406Z,93.60
2018-11-02T07:17:51.686Z,93.50
2018-11-02T07:20:19.955Z,93.40
2018-11-02T07:22:48.203Z,93.20
2018-11-02T07:25:16.537Z,93.00
2018-11-02T07:27:44.709Z,92.80
2018-11-02T07:30:13.164Z,92.70
2018-11-02T07:32:41.411Z,92.60
2018-11-02T07:35:16.125Z,92.50
2018-11-02T07:37:44.345Z,92.60
2018-11-02T07:40:12.621Z,92.60
2018-11-02T07:42:41.059Z,92.50
2018-11-02T07:45:09.875Z,92.40
2018-11-02T07:47:38.265Z,92.20
2018-11-02T07:50:08.510Z,92.10
2018-11-02T07:52:36.734Z,92.00
2018-11-02T07:55:06.400Z,91.80
2018-11-02T07:57:34.631Z,91.60
2018-11-02T08:00:02.865Z,91.60
2018-11-02T08:02:31.103Z,91.70
2018-11-02T08:04:59.407Z,91.40
2018-11-02T08:07:27.671Z,91.30
2018-11-02T08:09:55.849Z,91.30
2018-11-02T08:12:24.060Z,91.20
2018-11-02T08:14:52.208Z,91.00
2018-11-02T08:17:20.408Z,90.90
2018-11-02T08:19:48.586Z,90.80
2018-11-02T08:22:16.899Z,90.70
2018-11-02T08:24:45.142Z,90.50
2018-11-02T08:27:13.335Z,90.30
2018-11-02T08:29:41.680Z,90.00
2018-11-02T08:32:09.930Z,90.00
2018-11-02T08:34:38.213Z,89.60
2018-11-02T08:37:06.852Z,89.60
2018-11-02T08:39:35.094Z,89.40
2018-11-02T08:42:03.292Z,89.20
2018-11-02T08:44:31.534Z,88.60
2018-11-02T08:46:59.824Z,88.60
2018-11-02T08:49:28.024Z,88.70
2018-11-02T08:51:56.331Z,88.90
2018-11-02T08:54:24.786Z,89.00
2018-11-02T08:56:53.095Z,88.40
2018-11-02T08:59:21.445Z,88.10
2018-11-02T09:01:49.582Z,87.70
2018-11-02T09:04:17.825Z,87.10
2018-11-02T09:06:46.153Z,86.70
2018-11-02T09:09:14.343Z,86.00
2018-11-02T09:11:42.619Z,84.40
2018-11-02T09:16:38.971Z,81.10
2018-11-02T09:19:07.282Z,79.90
2018-11-02T09:21:35.534Z,79.10
2018-11-02T09:24:03.751Z,79.00
2018-11-02T09:26:32.027Z,79.70
2018-11-02T09:29:00.271Z,79.90
2018-11-02T09:31:28.625Z,80.40
2018-11-02T09:33:56.891Z,81.00
2018-11-02T09:36:25.130Z,80.70
2018-11-02T09:38:53.371Z,80.60
2018-11-02T09:41:21.581Z,79.90
2018-11-02T09:43:50.349Z,79.80
2018-11-02T09:46:18.752Z,80.00
2018-11-02T09:48:46.959Z,80.30
2018-11-02T09:51:15.233Z,80.00
2018-11-02T09:53:43.534Z,79.60
2018-11-02T09:56:11.883Z,79.40
2018-11-02T09:58:40.135Z,79.30
2018-11-02T10:01:08.381Z,79.20
2018-11-02T10:03:36.749Z,79.00
2018-11-02T10:06:05.117Z,78.50
2018-11-02T10:08:33.392Z,78.20
2018-11-02T10:11:01.665Z,76.70
2018-11-02T10:13:29.937Z,76.80
2018-11-02T10:15:58.243Z,76.20
2018-11-02T10:18:26.563Z,76.20
2018-11-02T10:20:55.092Z,74.90
2018-11-02T10:23:23.344Z,74.60
2018-11-02T10:25:51.654Z,74.20
2018-11-02T10:28:20.005Z,73.50
2018-11-02T10:30:48.179Z,72.30
2018-11-02T10:33:16.409Z,72.30
2018-11-02T10:35:44.755Z,72.00
2018-11-02T10:38:13.067Z,71.90
2018-11-02T10:40:44.171Z,71.70
2018-11-02T10:43:14.457Z,72.10
2018-11-02T10:45:44.339Z,73.10
2018-11-02T10:48:12.589Z,73.10
2018-11-02T10:50:40.864Z,73.20
2018-11-02T10:53:09.116Z,73.30
2018-11-02T10:55:37.365Z,72.90
2018-11-02T10:58:06.087Z,71.90
2018-11-02T11:00:39.850Z,69.60
2018-11-02T11:03:08.065Z,67.70
2018-11-02T11:05:36.450Z,66.50
2018-11-02T11:08:04.616Z,65.70
2018-11-02T11:10:33.257Z,64.30
2018-11-02T11:13:01.828Z,63.60
2018-11-02T11:15:29.713Z,61.00
2018-11-02T11:17:57.903Z,60.80
2018-11-02T11:20:26.138Z,60.70
2018-11-02T11:22:54.341Z,60.00
2018-11-02T11:25:22.582Z,59.00
2018-11-02T11:27:50.815Z,58.90
2018-11-02T11:30:20.233Z,58.00
2018-11-02T11:32:49.617Z,58.00
2018-11-02T11:35:20.845Z,58.50
2018-11-02T11:37:49.081Z,59.60
2018-11-02T11:40:19.391Z,59.40
2018-11-02T11:42:47.679Z,59.70
2018-11-02T11:45:17.903Z,60.20
2018-11-02T11:47:46.331Z,60.90
2018-11-02T11:50:18.243Z,59.90
2018-11-02T11:52:47.601Z,58.80
2018-11-02T11:55:16.551Z,57.30
2018-11-02T11:57:44.968Z,57.40
2018-11-02T12:00:18.162Z,56.50
2018-11-02T12:02:47.332Z,56.40
2018-11-02T12:05:16.858Z,57.50
2018-11-02T12:07:45.141Z,58.90
2018-11-02T12:10:16.048Z,59.50
2018-11-02T12:12:44.223Z,59.90
2018-11-02T12:15:15.640Z,59.80
2018-11-02T12:17:45.049Z,60.20
2018-11-02T12:20:15.126Z,61.00
2018-11-02T12:22:43.768Z,59.80
2018-11-02T12:25:13.304Z,58.80
2018-11-02T12:27:41.491Z,57.50
2018-11-02T12:30:11.983Z,56.90
2018-11-02T12:32:40.349Z,56.10
2018-11-02T12:35:10.069Z,55.90
2018-11-02T12:37:38.266Z,56.80
2018-11-02T12:40:08.332Z,57.80
2018-11-02T12:42:37.004Z,58.60
2018-11-02T12:45:06.480Z,59.00
2018-11-02T12:47:34.696Z,59.70
2018-11-02T12:50:03.226Z,60.30
2018-11-02T12:52:31.373Z,61.00
2018-11-02T12:54:59.557Z,62.00
2018-11-02T12:57:27.748Z,62.70
2018-11-02T12:59:55.933Z,63.80
2018-11-02T13:02:24.182Z,64.20
2018-11-02T13:04:52.367Z,64.00
2018-11-02T13:07:20.519Z,63.80
2018-11-02T13:09:48.694Z,62.00
2018-11-02T13:12:16.869Z,61.60
2018-11-02T13:14:45.055Z,61.50
2018-11-02T13:17:13.303Z,62.10
2018-11-02T13:19:41.587Z,61.00
2018-11-02T13:22:09.898Z,61.10
2018-11-02T13:24:38.013Z,61.10
2018-11-02T13:27:06.223Z,60.60
2018-11-02T13:29:34.403Z,60.20
2018-11-02T13:32:02.735Z,59.60
2018-11-02T13:34:30.791Z,57.50
2018-11-02T13:36:59.035Z,57.00
2018-11-02T13:39:27.189Z,55.90
2018-11-02T13:44:30.035Z,58.20
2018-11-02T13:46:58.307Z,58.80
2018-11-02T13:49:26.481Z,59.60
2018-11-02T13:51:54.762Z,60.20
2018-11-02T13:54:22.961Z,60.90
2018-11-02T13:56:51.115Z,61.60
2018-11-02T13:59:19.293Z,62.60
2018-11-02T14:01:47.543Z,63.40
2018-11-02T14:04:15.739Z,64.70
2018-11-02T14:06:44.001Z,65.10
2018-11-02T14:09:12.209Z,65.70
2018-11-02T14:11:40.457Z,66.70
2018-11-02T14:14:09.085Z,67.10
2018-11-02T14:16:37.219Z,66.90
2018-11-02T14:19:05.539Z,67.60
2018-11-02T14:21:33.735Z,68.00
2018-11-02T14:24:01.948Z,68.80
2018-11-02T14:26:30.284Z,68.60
2018-11-02T14:28:58.518Z,68.90
2018-11-02T14:31:26.718Z,68.30
2018-11-02T14:33:55.012Z,67.60
2018-11-02T14:36:23.252Z,67.70
2018-11-02T14:38:51.466Z,67.60
2018-11-02T14:41:19.710Z,68.00
2018-11-02T14:43:54.361Z,67.90
2018-11-02T14:46:22.617Z,67.80
2018-11-02T14:48:50.783Z,67.80
2018-11-02T14:51:18.986Z,67.80
2018-11-02T14:53:47.303Z,68.20
2018-11-02T14:56:15.512Z,68.50
2018-11-02T14:58:43.678Z,68.30
2018-11-02T15:01:11.936Z,69.20
2018-11-02T15:03:40.109Z,68.90
2018-11-02T15:06:08.276Z,69.30
2018-11-02T15:08:36.452Z,69.60
2018-11-02T15:11:04.695Z,69.60
2018-11-02T15:13:32.941Z,69.90
2018-11-02T15:16:01.101Z,70.60
2018-11-02T15:18:29.267Z,70.90
2018-11-02T15:20:57.454Z,71.10
2018-11-02T15:23:25.755Z,71.50
2018-11-02T15:25:53.948Z,72.30
2018-11-02T15:28:22.107Z,72.70
2018-11-02T15:30:50.314Z,73.00
2018-11-02T15:33:18.516Z,73.70
2018-11-02T15:35:46.810Z,74.30
2018-11-02T15:38:14.983Z,74.60
2018-11-02T15:40:43.175Z,74.90
2018-11-02T15:43:11.396Z,76.10
2018-11-02T15:45:39.605Z,76.00
2018-11-02T15:48:07.847Z,76.40
2018-11-02T15:50:36.034Z,76.60
2018-11-02T15:53:04.261Z,77.20
2018-11-02T15:55:32.427Z,77.40
2018-11-02T15:58:00.595Z,77.90
2018-11-02T16:00:28.817Z,78.30
2018-11-02T16:02:57.019Z,79.10
2018-11-02T16:05:25.177Z,79.20
2018-11-02T16:07:53.329Z,80.20
2018-11-02T16:10:21.517Z,80.80
2018-11-02T16:12:49.700Z,81.00
2018-11-02T16:15:17.931Z,81.00
2018-11-02T16:17:46.151Z,80.70
2018-11-02T16:20:15.163Z,81.80
2018-11-02T16:22:44.006Z,81.80
2018-11-02T16:25:12.727Z,82.20
2018-11-02T16:27:42.468Z,82.60
2018-11-02T16:30:11.266Z,82.80
2018-11-02T16:32:39.403Z,82.60
2018-11-02T16:35:08.423Z,82.40
2018-11-02T16:37:36.582Z,82.80
2018-11-02T16:40:06.639Z,83.80
2018-11-02T16:42:34.782Z,83.20
2018-11-02T16:45:03.149Z,83.20
2018-11-02T16:47:32.170Z,83.80
2018-11-02T16:50:00.489Z,84.20
2018-11-02T16:52:28.712Z,84.80
2018-11-02T16:54:56.953Z,85.70
2018-11-02T16:57:25.200Z,85.10
2018-11-02T16:59:53.345Z,86.60
2018-11-02T17:02:21.625Z,86.90
2018-11-02T17:04:49.826Z,87.50
2018-11-02T17:07:17.995Z,87.80
2018-11-02T17:09:46.220Z,88.00
2018-11-02T17:12:14.945Z,89.30
2018-11-02T17:14:43.171Z,89.30
2018-11-02T17:17:11.401Z,89.00
2018-11-02T17:19:39.577Z,89.30
2018-11-02T17:22:07.867Z,89.70
2018-11-02T17:24:36.110Z,90.10
2018-11-02T17:27:04.374Z,90.40
2018-11-02T17:29:32.534Z,90.70
2018-11-02T17:32:00.758Z,90.90
2018-11-02T17:34:28.951Z,91.10
2018-11-02T17:36:57.160Z,91.20
2018-11-02T17:39:25.344Z,91.30
2018-11-02T17:41:53.605Z,91.30
2018-11-02T17:44:21.853Z,91.40
2018-11-02T17:46:50.075Z,91.70
2018-11-02T17:49:24.948Z,91.70
2018-11-02T17:51:53.209Z,91.80
2018-11-02T17:54:21.406Z,91.90
2018-11-02T17:56:49.692Z,92.00
2018-11-02T17:59:17.887Z,92.00
2018-11-02T18:01:46.129Z,91.80
2018-11-02T18:04:14.409Z,91.80
2018-11-02T18:06:42.653Z,92.00
2018-11-02T18:09:11.647Z,91.80
2018-11-02T18:11:40.005Z,91.60
2018-11-02T18:14:08.806Z,91.70
2018-11-02T18:16:36.992Z,91.80
2018-11-02T18:19:05.226Z,91.70
2018-11-02T18:21:33.494Z,91.70
2018-11-02T18:24:02.391Z,91.70
2018-11-02T18:26:32.168Z,91.60
2018-11-02T18:29:01.846Z,91.40
2018-11-02T18:31:31.562Z,91.40
2018-11-02T18:34:00.406Z,91.40
2018-11-02T18:36:29.093Z,91.60
2018-11-02T18:38:57.952Z,92.10
2018-11-02T18:41:27.222Z,92.00
2018-11-02T18:44:10.482Z,92.10
2018-11-02T18:49:26.681Z,92.10
2018-11-02T18:51:56.426Z,92.20
2018-11-02T18:54:24.599Z,92.10
2018-11-02T18:56:52.914Z,92.60
2018-11-02T18:59:21.068Z,92.70
2018-11-02T19:01:49.555Z,92.50
2018-11-02T19:04:17.736Z,92.60
2018-11-02T19:06:46.010Z,92.80
2018-11-02T19:09:14.216Z,92.90
2018-11-02T19:11:42.356Z,92.90
2018-11-02T19:14:10.567Z,93.20
2018-11-02T19:16:38.803Z,93.30
2018-11-02T19:19:07.257Z,93.60
2018-11-02T19:21:35.524Z,93.40
2018-11-02T19:24:03.701Z,93.70
2018-11-02T19:26:31.956Z,93.60
2018-11-02T19:29:00.184Z,93.60
2018-11-02T19:31:29.799Z,93.50
2018-11-02T19:33:58.396Z,93.50
2018-11-02T19:36:29.673Z,93.40
2018-11-02T19:39:01.757Z,93.60
2018-11-02T19:44:35.735Z,93.30
2018-11-02T19:47:04.768Z,93.30
2018-11-02T19:49:33.320Z,93.40
2018-11-02T19:52:01.785Z,93.40
2018-11-02T19:54:30.886Z,93.30
2018-11-02T19:57:01.735Z,93.20
2018-11-02T19:59:30.293Z,93.10
2018-11-02T20:01:59.399Z,92.90
2018-11-02T20:04:28.355Z,92.80
2018-11-02T20:06:56.817Z,92.80
2018-11-02T20:09:27.419Z,92.80
2018-11-02T20:11:56.581Z,92.80
2018-11-02T20:14:25.373Z,92.70
2018-11-02T20:16:55.076Z,92.70
2018-11-02T20:19:23.489Z,92.60
2018-11-02T20:21:52.025Z,92.50
2018-11-02T20:24:20.422Z,92.40
2018-11-02T20:26:48.931Z,92.20
2018-11-02T20:29:17.893Z,92.20
2018-11-02T20:31:46.244Z,92.20
2018-11-02T20:34:14.672Z,92.10
2018-11-02T20:36:43.899Z,91.90
2018-11-02T20:39:13.023Z,91.90
2018-11-02T20:41:42.382Z,91.90
2018-11-02T20:44:11.773Z,92.00
2018-11-02T20:46:40.465Z,92.20
2018-11-02T20:49:09.583Z,92.30
2018-11-02T20:51:38.186Z,92.40
2018-11-02T20:54:07.056Z,92.60
2018-11-02T20:56:35.901Z,92.60
2018-11-02T20:59:05.914Z,92.40
2018-11-02T21:01:38.376Z,92.40
2018-11-02T21:04:08.322Z,92.40
2018-11-02T21:06:37.494Z,92.60
2018-11-02T21:09:11.199Z,92.60
2018-11-02T21:11:42.162Z,92.60
2018-11-02T21:14:10.973Z,92.50
2018-11-02T21:16:39.817Z,92.60
2018-11-02T21:19:08.409Z,92.70
2018-11-02T21:21:36.975Z,92.60
2018-11-02T21:24:06.594Z,92.70
2018-11-02T21:26:35.036Z,92.80
2018-11-02T21:29:03.709Z,93.20
2018-11-02T21:31:33.056Z,93.10
2018-11-02T21:34:02.076Z,93.20
2018-11-02T21:36:30.913Z,93.20
2018-11-02T21:38:59.826Z,93.00
2018-11-02T21:41:29.063Z,92.90
2018-11-02T21:43:58.792Z,93.20
2018-11-02T21:46:27.394Z,93.20
2018-11-02T21:48:55.893Z,93.30
2018-11-02T21:51:24.381Z,93.30
2018-11-02T21:53:52.883Z,93.20
2018-11-02T21:56:21.621Z,93.10
2018-11-02T21:58:49.985Z,93.30
2018-11-02T22:01:18.473Z,93.40
2018-11-02T22:03:46.935Z,93.30
2018-11-02T22:06:15.382Z,93.30
2018-11-02T22:08:44.162Z,93.40
2018-11-02T22:11:12.718Z,93.30
2018-11-02T22:13:41.105Z,93.40
2018-11-02T22:16:09.613Z,93.50
2018-11-02T22:18:38.283Z,93.50
2018-11-02T22:21:07.501Z,93.50
2018-11-02T22:23:36.126Z,93.40
2018-11-02T22:26:04.983Z,93.50
2018-11-02T22:28:33.258Z,93.50
2018-11-02T22:31:01.601Z,93.50
2018-11-02T22:33:29.812Z,93.50
2018-11-02T22:35:58.018Z,93.50
2018-11-02T22:38:26.238Z,93.60
2018-11-02T22:40:54.438Z,93.70
2018-11-02T22:43:22.688Z,93.70
2018-11-02T22:45:50.920Z,93.80
2018-11-02T22:48:23.255Z,93.80
2018-11-02T22:50:51.752Z,93.80
2018-11-02T22:53:19.957Z,93.80
2018-11-02T22:55:48.163Z,93.70
2018-11-02T22:58:16.470Z,93.60
2018-11-02T23:00:50.081Z,93.70
2018-11-02T23:03:18.350Z,93.80
2018-11-02T23:05:46.679Z,93.70
2018-11-02T23:08:14.834Z,93.80
2018-11-02T23:10:43.062Z,93.70
2018-11-02T23:13:11.252Z,93.80
2018-11-02T23:15:39.492Z,93.70
2018-11-02T23:18:07.715Z,93.60
2018-11-02T23:20:35.938Z,93.70
2018-11-02T23:23:04.172Z,93.60
2018-11-02T23:25:32.384Z,93.50
2018-11-02T23:28:00.650Z,93.60
2018-11-02T23:30:28.801Z,93.60
2018-11-02T23:32:57.030Z,93.60
2018-11-02T23:35:25.203Z,93.60
2018-11-02T23:37:53.408Z,93.60
2018-11-02T23:40:21.593Z,93.60
2018-11-02T23:42:49.796Z,93.70
2018-11-02T23:45:17.969Z,93.70
2018-11-02T23:47:51.545Z,93.80
2018-11-02T23:50:19.714Z,93.80
2018-11-02T23:52:47.919Z,93.90
2018-11-02T23:55:16.204Z,94.00
2018-11-02T23:57:44.400Z,94.10
